Time;durP1;ratioP1;P1;durP2;ratioP2;P2;SDS_P1;SDS_P2;PMS_P1;PMS_P2;Temp;Humidity;BMP_temperature;BMP_pressure;BME280_temperature;BME280_humidity;BME280_pressure;Samples;Min_cycle;Max_cycle;Signal;HPM_P1;HPM_P2
2022/01/18 00:01:38;;;;;;;17.02;2.13;;;4.50;74.50;;;;;;4137625;28;19916;-68
2022/01/18 00:03:39;;;;;;;15.05;2.33;;;4.50;74.40;;;;;;4138820;28;20026;-69
2022/01/18 00:05:42;;;;;;;18.05;2.55;;;4.50;74.30;;;;;;4143083;28;20049;-68
2022/01/18 00:07:43;;;;;;;18.98;2.28;;;4.50;74.30;;;;;;4156990;28;20022;-67
2022/01/18 00:09:44;;;;;;;31.42;2.33;;;4.50;74.40;;;;;;4159714;28;20029;-68
2022/01/18 00:11:50;;;;;;;22.73;2.15;;;4.50;74.50;;;;;;4145285;28;20112;-68
2022/01/18 00:13:59;;;;;;;27.88;2.50;;;4.50;75.30;;;;;;4144733;28;20045;-68
2022/01/18 00:16:11;;;;;;;20.17;2.75;;;4.50;74.80;;;;;;4144792;28;20108;-69
2022/01/18 00:18:14;;;;;;;22.37;2.70;;;4.50;74.90;;;;;;4139369;28;20038;-69
2022/01/18 00:20:19;;;;;;;28.55;2.20;;;4.50;75.00;;;;;;4138827;28;20413;-69
2022/01/18 00:22:21;;;;;;;24.70;1.98;;;4.50;75.10;;;;;;4137837;28;20088;-69
2022/01/18 00:24:21;;;;;;;22.35;2.22;;;4.50;75.10;;;;;;4158516;28;20095;-68
2022/01/18 00:26:25;;;;;;;32.63;2.72;;;4.60;75.30;;;;;;4139902;28;20030;-68
2022/01/18 00:28:26;;;;;;;;;;;4.50;75.30;;;;;;4144993;28;20696;-69
2022/01/18 00:32:45;;;;;;;14.93;2.05;;;4.60;75.50;;;;;;4144374;28;20430;-68
2022/01/18 00:34:50;;;;;;;17.55;1.95;;;4.60;75.40;;;;;;4135891;28;20023;-68
2022/01/18 00:38:52;;;;;;;17.98;2.10;;;4.60;76.30;;;;;;4137893;28;20030;-69
2022/01/18 00:40:52;;;;;;;26.27;2.58;;;4.60;75.60;;;;;;4143145;28;20026;-68
2022/01/18 00:42:53;;;;;;;20.42;2.20;;;4.60;75.70;;;;;;4143756;28;20029;-68
2022/01/18 00:44:54;;;;;;;23.08;2.15;;;4.60;75.80;;;;;;4138192;28;20029;-69
2022/01/18 00:46:54;;;;;;;32.20;2.58;;;4.60;75.70;;;;;;4144107;28;20037;-69
2022/01/18 00:48:57;;;;;;;28.27;3.33;;;4.60;75.80;;;;;;4139143;28;20060;-69
2022/01/18 00:50:58;;;;;;;18.73;2.17;;;4.60;76.10;;;;;;4139491;28;20036;-67
2022/01/18 00:52:58;;;;;;;17.35;2.80;;;4.60;76.30;;;;;;4160464;28;20405;-70
2022/01/18 00:55:01;;;;;;;14.85;2.33;;;4.60;76.40;;;;;;4136741;28;20030;-71
2022/01/18 00:57:01;;;;;;;18.90;2.45;;;4.60;76.50;;;;;;4143465;28;20081;-69
2022/01/18 00:59:02;;;;;;;12.70;2.05;;;4.70;76.60;;;;;;4142424;28;20501;-70
2022/01/18 01:01:03;;;;;;;12.88;1.80;;;4.70;76.70;;;;;;4144032;28;20021;-70
2022/01/18 01:03:03;;;;;;;12.65;1.88;;;4.70;76.60;;;;;;4159335;28;20033;-70
2022/01/18 01:05:08;;;;;;;14.27;2.50;;;4.70;76.70;;;;;;4139589;28;20030;-69
2022/01/18 01:07:09;;;;;;;11.25;1.67;;;4.70;77.00;;;;;;4138077;28;20029;-70
2022/01/18 01:09:09;;;;;;;15.30;1.48;;;4.70;76.70;;;;;;4137654;28;20723;-70
2022/01/18 01:11:10;;;;;;;23.77;2.33;;;4.80;76.70;;;;;;4143183;28;20038;-70
2022/01/18 01:13:11;;;;;;;16.23;1.70;;;4.80;76.70;;;;;;4144684;28;20044;-70
2022/01/18 01:15:14;;;;;;;16.67;2.30;;;4.80;76.70;;;;;;4124379;28;20034;-70
2022/01/18 01:19:49;;;;;;;18.52;2.55;;;4.80;76.70;;;;;;4142777;28;20025;-70
2022/01/18 01:42:06;;;;;;;15.80;1.65;;;4.90;77.30;;;;;;4143537;28;20030;-69
2022/01/18 01:44:20;;;;;;;18.88;1.70;;;4.90;77.30;;;;;;4143146;28;20026;-69
2022/01/18 01:46:22;;;;;;;13.82;1.77;;;4.80;77.40;;;;;;4134699;28;20816;-69
2022/01/18 01:48:23;;;;;;;10.45;1.58;;;4.80;77.60;;;;;;4132901;28;20026;-69
2022/01/18 01:50:26;;;;;;;14.60;1.88;;;4.80;77.80;;;;;;4155375;28;20025;-69
2022/01/18 01:52:27;;;;;;;23.00;2.88;;;4.80;78.00;;;;;;4134216;28;20041;-70
2022/01/18 01:54:27;;;;;;;17.42;2.13;;;4.80;78.50;;;;;;4142627;28;20394;-69
2022/01/18 01:56:29;;;;;;;19.55;2.30;;;4.80;78.60;;;;;;4158318;28;20029;-69
2022/01/18 01:58:29;;;;;;;15.02;1.92;;;4.80;78.90;;;;;;4145614;22;20058;-84
2022/01/18 02:00:30;;;;;;;15.63;1.73;;;4.80;79.00;;;;;;4128080;28;20038;-84
2022/01/18 02:02:31;;;;;;;19.25;2.38;;;4.80;79.10;;;;;;4109045;28;20055;-83
2022/01/18 02:04:31;;;;;;;16.33;2.00;;;4.80;79.10;;;;;;4116066;28;20042;-84
2022/01/18 02:06:32;;;;;;;18.63;2.55;;;4.80;79.10;;;;;;4107220;28;20453;-84
2022/01/18 02:08:33;;;;;;;34.88;3.42;;;4.80;79.10;;;;;;4116066;28;20083;-83
2022/01/18 02:10:37;;;;;;;10.65;1.80;;;4.80;79.10;;;;;;4126918;28;20027;-83
2022/01/18 02:12:38;;;;;;;11.38;1.35;;;4.80;79.00;;;;;;4094245;28;20034;-84
2022/01/18 02:14:40;;;;;;;17.60;2.05;;;4.70;78.80;;;;;;4095133;28;20019;-83
2022/01/18 02:23:39;;;;;;;10.82;1.13;;;4.80;78.60;;;;;;4121072;28;20023;-83
2022/01/18 02:25:40;;;;;;;11.48;1.42;;;4.70;78.60;;;;;;4131837;28;20064;-83
2022/01/18 02:27:41;;;;;;;16.02;2.13;;;4.70;78.50;;;;;;4111354;28;20031;-83
2022/01/18 02:29:42;;;;;;;8.73;1.05;;;4.70;78.40;;;;;;4116890;28;20113;-83
2022/01/18 02:31:42;;;;;;;7.38;1.23;;;4.70;78.30;;;;;;4143438;28;20030;-84
2022/01/18 02:33:43;;;;;;;15.93;1.40;;;4.70;78.30;;;;;;4097176;28;20123;-83
2022/01/18 02:35:44;;;;;;;11.13;1.63;;;4.70;78.30;;;;;;4114380;28;20018;-83
2022/01/18 02:37:51;;;;;;;8.95;1.20;;;4.60;78.20;;;;;;4142032;28;20104;-83
2022/01/18 02:39:52;;;;;;;10.98;1.15;;;4.60;78.30;;;;;;4129169;28;20027;-83
2022/01/18 02:41:54;;;;;;;11.57;1.25;;;4.50;78.40;;;;;;4097501;28;20042;-84
2022/01/18 02:44:11;;;;;;;12.07;1.50;;;4.60;78.60;;;;;;4113850;28;20082;-83
2022/01/18 02:46:12;;;;;;;6.50;1.13;;;4.50;78.50;;;;;;4130308;28;20157;-84
2022/01/18 02:48:12;;;;;;;20.85;1.63;;;4.50;78.60;;;;;;4098021;28;20064;-83
2022/01/18 02:50:13;;;;;;;12.20;2.08;;;4.40;78.60;;;;;;4113575;28;20045;-84
2022/01/18 02:52:14;;;;;;;13.27;1.25;;;4.40;78.80;;;;;;4125403;28;20037;-83
2022/01/18 02:54:17;;;;;;;16.13;1.40;;;4.40;78.90;;;;;;4142654;28;20558;-83
2022/01/18 02:56:17;;;;;;;17.92;1.58;;;4.40;79.00;;;;;;4142940;28;20037;-83
2022/01/18 02:58:26;;;;;;;11.55;1.13;;;4.40;79.00;;;;;;4129804;28;20042;-83
2022/01/18 03:00:31;;;;;;;10.82;1.25;;;4.30;78.80;;;;;;4130604;28;20032;-83
2022/01/18 03:04:51;;;;;;;14.05;1.40;;;4.30;78.70;;;;;;4143252;28;20151;-83
2022/01/18 03:06:52;;;;;;;10.60;1.23;;;4.30;78.80;;;;;;4126264;28;20066;-83
2022/01/18 03:08:52;;;;;;;20.70;2.10;;;4.30;79.00;;;;;;4129039;28;20026;-83
2022/01/18 03:10:53;;;;;;;8.98;1.15;;;4.20;79.40;;;;;;4123199;28;20027;-82
2022/01/18 03:12:54;;;;;;;11.45;1.48;;;4.20;80.80;;;;;;4137115;28;20117;-82
2022/01/18 03:14:54;;;;;;;15.80;1.88;;;4.20;81.40;;;;;;4130105;28;20041;-82
2022/01/18 03:16:55;;;;;;;12.60;1.80;;;4.20;82.50;;;;;;4129171;28;20037;-81
2022/01/18 03:18:56;;;;;;;16.80;1.98;;;4.30;82.80;;;;;;4129625;28;20038;-82
2022/01/18 03:20:56;;;;;;;17.40;2.33;;;4.30;82.80;;;;;;4118961;28;20033;-82
2022/01/18 03:22:57;;;;;;;15.80;1.50;;;4.30;83.20;;;;;;4113270;28;20030;-83
2022/01/18 03:25:13;;;;;;;15.60;1.75;;;4.40;83.70;;;;;;4124084;28;20030;-82
2022/01/18 03:29:34;;;;;;;17.63;2.22;;;4.50;83.90;;;;;;4146222;28;20038;-83
2022/01/18 03:31:35;;;;;;;17.45;1.67;;;4.50;84.10;;;;;;4145052;28;20029;-82
2022/01/18 03:33:36;;;;;;;11.70;1.95;;;4.60;84.00;;;;;;4110470;28;20027;-82
2022/01/18 03:35:37;;;;;;;10.10;1.80;;;4.60;84.20;;;;;;4129177;28;20627;-83
2022/01/18 03:37:39;;;;;;;17.13;2.00;;;4.60;84.20;;;;;;4145489;28;20036;-82
2022/01/18 03:39:40;;;;;;;18.20;2.37;;;4.70;84.20;;;;;;4117129;28;20081;-82
2022/01/18 03:41:41;;;;;;;14.10;1.67;;;4.80;84.20;;;;;;4105059;28;20823;-82
2022/01/18 03:43:42;;;;;;;13.48;1.50;;;4.80;84.10;;;;;;4130264;28;20034;-82
2022/01/18 03:45:46;;;;;;;10.13;1.90;;;4.80;84.00;;;;;;4124940;28;20038;-82
2022/01/18 03:47:47;;;;;;;12.02;1.40;;;4.90;83.80;;;;;;4144919;28;20025;-82
2022/01/18 03:49:48;;;;;;;13.63;2.05;;;4.90;83.70;;;;;;4104208;28;20448;-83
2022/01/18 03:51:48;;;;;;;17.13;1.73;;;4.90;83.70;;;;;;4163352;28;20379;-83
2022/01/18 03:53:51;;;;;;;18.00;2.15;;;5.00;83.80;;;;;;4140486;28;20030;-84
2022/01/18 03:55:52;;;;;;;15.02;1.67;;;5.00;83.80;;;;;;4153842;28;20072;-83
2022/01/18 03:57:53;;;;;;;27.35;2.83;;;5.10;83.70;;;;;;4145363;28;20523;-84
2022/01/18 03:59:53;;;;;;;21.00;2.13;;;5.10;83.70;;;;;;4127110;28;20034;-84
2022/01/18 04:01:54;;;;;;;16.70;3.08;;;5.10;83.70;;;;;;4127030;28;20057;-84
2022/01/18 04:03:55;;;;;;;26.58;2.90;;;5.20;83.80;;;;;;4140851;28;20102;-84
2022/01/18 04:05:56;;;;;;;18.00;2.50;;;5.10;84.70;;;;;;4128560;28;20533;-84
2022/01/18 04:07:57;;;;;;;23.20;3.13;;;5.20;84.00;;;;;;4127974;28;20031;-84
2022/01/18 04:09:58;;;;;;;30.50;3.75;;;5.20;84.00;;;;;;4139293;28;20096;-84
2022/01/18 04:11:58;;;;;;;25.92;3.13;;;5.20;84.10;;;;;;4129087;28;20034;-84
2022/01/18 04:13:59;;;;;;;21.50;3.38;;;5.30;84.40;;;;;;4129335;28;20069;-84
2022/01/18 04:16:00;;;;;;;24.23;3.80;;;5.30;84.40;;;;;;4111581;28;20027;-84
2022/01/18 04:27:12;;;;;;;25.40;3.47;;;5.40;84.10;;;;;;4141942;28;20065;-84
2022/01/18 04:29:12;;;;;;;16.20;2.85;;;5.40;84.20;;;;;;4114382;28;20027;-85
2022/01/18 04:31:13;;;;;;;33.67;3.28;;;5.50;85.00;;;;;;4114564;28;20122;-84
2022/01/18 04:33:15;;;;;;;37.08;3.88;;;5.40;84.20;;;;;;4144806;28;20030;-84
2022/01/18 04:35:15;;;;;;;25.02;3.65;;;5.40;84.20;;;;;;4126577;28;20328;-84
2022/01/18 04:37:16;;;;;;;32.75;4.10;;;5.40;84.30;;;;;;4111472;28;20117;-83
2022/01/18 04:39:16;;;;;;;27.95;3.22;;;5.40;84.30;;;;;;4128979;28;20316;-82
2022/01/18 04:41:24;;;;;;;25.33;3.45;;;5.40;84.30;;;;;;4143142;28;20032;-83
2022/01/18 04:48:23;;;;;;;26.02;3.45;;;5.40;84.30;;;;;;4114847;28;20077;-83
2022/01/18 04:50:26;;;;;;;25.70;3.20;;;5.50;84.30;;;;;;4139482;28;20032;-86
2022/01/18 04:52:27;;;;;;;34.97;3.92;;;5.60;84.30;;;;;;4143556;28;20383;-86
2022/01/18 04:54:30;;;;;;;27.08;4.28;;;5.60;84.20;;;;;;4142502;28;20033;-86
2022/01/18 04:58:37;;;;;;;38.95;3.85;;;5.60;84.10;;;;;;4142286;28;20080;-82
2022/01/18 05:00:38;;;;;;;28.67;3.80;;;5.50;84.00;;;;;;4130232;28;20038;-82
2022/01/18 05:02:38;;;;;;;33.47;4.63;;;5.50;83.90;;;;;;4095535;28;20071;-83
2022/01/18 05:04:39;;;;;;;34.42;3.78;;;5.50;83.80;;;;;;4144412;28;20081;-83
2022/01/18 05:06:42;;;;;;;30.92;3.72;;;5.60;83.80;;;;;;4101635;28;21534;-83
2022/01/18 05:08:42;;;;;;;33.08;5.18;;;5.60;83.70;;;;;;4124317;28;20037;-83
2022/01/18 05:10:44;;;;;;;33.70;3.95;;;5.60;83.50;;;;;;4108591;28;20030;-83
2022/01/18 05:12:48;;;;;;;36.95;3.80;;;5.60;83.40;;;;;;4108530;28;20046;-82
2022/01/18 05:14:48;;;;;;;;;;;5.60;83.30;;;;;;4141086;28;20037;-83
2022/01/18 05:21:19;;;;;;;28.10;3.22;;;5.60;82.80;;;;;;4141626;28;20095;-82
2022/01/18 05:23:20;;;;;;;28.50;3.35;;;5.60;82.70;;;;;;4127840;28;20522;-82
2022/01/18 05:25:20;;;;;;;41.00;4.15;;;5.60;82.60;;;;;;4089620;28;20043;-82
2022/01/18 05:27:21;;;;;;;26.02;3.47;;;5.60;82.50;;;;;;4123900;28;20042;-82
2022/01/18 05:29:22;;;;;;;34.95;3.95;;;5.60;82.50;;;;;;4158376;28;20041;-82
2022/01/18 05:31:22;;;;;;;34.97;4.47;;;5.60;82.50;;;;;;4139772;28;20061;-82
2022/01/18 05:33:23;;;;;;;28.27;3.75;;;5.60;82.50;;;;;;4106466;28;20114;-82
2022/01/18 05:35:24;;;;;;;39.10;4.43;;;5.60;82.50;;;;;;4126446;28;20117;-82
2022/01/18 05:37:25;;;;;;;38.75;4.75;;;5.50;82.40;;;;;;4138616;28;20024;-82
2022/01/18 05:39:26;;;;;;;38.70;3.58;;;5.50;82.30;;;;;;4140896;28;20471;-82
2022/01/18 05:41:26;;;;;;;43.78;4.35;;;5.50;82.30;;;;;;4126141;28;20047;-82
2022/01/18 05:43:27;;;;;;;52.65;4.78;;;5.50;82.20;;;;;;4141049;28;20040;-82
2022/01/18 05:45:27;;;;;;;28.40;4.45;;;5.50;82.40;;;;;;4127157;28;20034;-82
2022/01/18 05:47:28;;;;;;;36.33;4.45;;;5.40;82.30;;;;;;4125703;28;20038;-82
2022/01/18 05:49:29;;;;;;;33.78;4.70;;;5.50;82.50;;;;;;4126504;28;20472;-82
2022/01/18 05:51:30;;;;;;;36.85;3.92;;;5.40;82.40;;;;;;4127223;28;20026;-82
2022/01/18 05:53:31;;;;;;;35.47;4.75;;;5.40;82.30;;;;;;4139837;28;20125;-83
2022/01/18 05:55:32;;;;;;;43.15;4.53;;;5.40;82.40;;;;;;4109204;28;20507;-82
2022/01/18 05:57:33;;;;;;;35.78;4.38;;;5.40;82.50;;;;;;4120472;28;20039;-81
2022/01/18 05:59:36;;;;;;;31.60;5.43;;;5.40;82.40;;;;;;4126519;28;20053;-82
2022/01/18 06:01:47;;;;;;;36.72;3.80;;;5.40;82.40;;;;;;4127593;28;20744;-82
2022/01/18 06:08:19;;;;;;;36.08;4.40;;;5.30;82.50;;;;;;4140509;28;20030;-82
2022/01/18 06:10:20;;;;;;;34.75;4.07;;;5.30;82.50;;;;;;4106410;28;20041;-81
2022/01/18 06:12:21;;;;;;;30.63;3.88;;;5.30;82.50;;;;;;4138662;28;20034;-81
2022/01/18 06:14:21;;;;;;;33.05;4.55;;;5.40;82.60;;;;;;4121183;28;20235;-82
2022/01/18 06:16:22;;;;;;;42.08;4.13;;;5.30;82.50;;;;;;4137741;28;20111;-82
2022/01/18 06:18:22;;;;;;;29.15;3.15;;;5.30;82.40;;;;;;4133335;28;20026;-82
2022/01/18 06:20:23;;;;;;;29.73;3.70;;;5.20;82.40;;;;;;4130813;28;20030;-82
2022/01/18 06:22:24;;;;;;;27.75;3.38;;;5.30;82.40;;;;;;4119157;28;20029;-82
2022/01/18 06:24:24;;;;;;;28.52;3.85;;;5.30;82.40;;;;;;4125327;28;20019;-82
2022/01/18 06:26:25;;;;;;;24.98;4.10;;;5.30;82.40;;;;;;4138162;28;20459;-82
2022/01/18 06:28:25;;;;;;;25.17;3.72;;;5.30;82.40;;;;;;4138346;28;20034;-82
2022/01/18 06:30:26;;;;;;;36.97;3.50;;;5.30;82.30;;;;;;4135737;28;20045;-82
2022/01/18 06:32:27;;;;;;;28.95;3.30;;;5.30;82.30;;;;;;4134168;28;20041;-82
2022/01/18 06:34:28;;;;;;;32.63;3.42;;;5.30;82.20;;;;;;4124975;28;20385;-82
2022/01/18 06:36:28;;;;;;;27.63;3.42;;;5.30;82.10;;;;;;4149423;28;20017;-82
2022/01/18 06:38:29;;;;;;;22.95;3.30;;;5.30;82.10;;;;;;4125016;28;20057;-83
2022/01/18 06:40:29;;;;;;;37.70;3.50;;;5.40;82.10;;;;;;4109738;28;20134;-83
2022/01/18 06:42:31;;;;;;;28.90;3.55;;;5.30;82.00;;;;;;4137325;28;20106;-82
2022/01/18 06:44:31;;;;;;;24.08;2.88;;;5.40;82.10;;;;;;4123351;28;20031;-82
2022/01/18 06:46:32;;;;;;;29.38;3.42;;;5.30;82.10;;;;;;4123720;28;20088;-82
2022/01/18 06:48:32;;;;;;;27.90;3.92;;;5.30;82.00;;;;;;4144919;28;20030;-82
2022/01/18 06:50:34;;;;;;;25.17;3.42;;;5.30;82.00;;;;;;4103177;28;20167;-83
2022/01/18 06:52:34;;;;;;;26.55;3.70;;;5.40;81.90;;;;;;4124548;28;20042;-83
2022/01/18 06:54:35;;;;;;;25.23;2.60;;;5.40;81.90;;;;;;4101900;28;20050;-83
2022/01/18 06:56:36;;;;;;;24.60;2.17;;;5.40;81.80;;;;;;4097379;28;20653;-83
2022/01/18 06:58:37;;;;;;;25.10;3.25;;;5.50;81.80;;;;;;4124813;28;20408;-83
2022/01/18 07:00:37;;;;;;;31.88;4.20;;;5.40;81.70;;;;;;4122876;28;20034;-83
2022/01/18 07:02:38;;;;;;;31.70;4.32;;;5.50;81.60;;;;;;4105755;28;20034;-83
2022/01/18 07:04:42;;;;;;;24.63;3.42;;;5.50;81.60;;;;;;4123707;28;20045;-84
2022/01/18 07:06:46;;;;;;;19.58;2.90;;;5.50;82.30;;;;;;4134700;28;20212;-83
2022/01/18 07:08:49;;;;;;;20.98;3.50;;;5.40;81.50;;;;;;4126780;28;20570;-83
2022/01/18 07:10:50;;;;;;;28.02;2.67;;;5.40;81.40;;;;;;4143115;28;20030;-83
2022/01/18 07:12:56;;;;;;;20.95;2.20;;;5.50;81.30;;;;;;4122085;28;20034;-83
2022/01/18 07:14:57;;;;;;;20.60;2.72;;;5.50;81.30;;;;;;4129977;28;20030;-83
2022/01/18 07:16:58;;;;;;;14.45;2.50;;;5.40;81.10;;;;;;4114003;28;20065;-83
2022/01/18 07:18:59;;;;;;;21.60;3.08;;;5.40;81.20;;;;;;4121817;28;20042;-83
2022/01/18 07:21:00;;;;;;;22.02;2.70;;;5.40;81.10;;;;;;4128839;28;20038;-83
2022/01/18 07:23:03;;;;;;;21.02;2.17;;;5.40;81.10;;;;;;4143791;28;20041;-83
2022/01/18 07:25:11;;;;;;;17.63;2.22;;;5.40;81.10;;;;;;4129650;28;20133;-82
2022/01/18 07:27:13;;;;;;;22.85;3.10;;;5.40;81.10;;;;;;4122313;28;20089;-83
2022/01/18 07:29:14;;;;;;;14.00;2.58;;;5.50;81.00;;;;;;4112700;28;20033;-83
2022/01/18 07:31:15;;;;;;;24.55;3.72;;;5.50;81.00;;;;;;4143184;28;20149;-83
2022/01/18 07:33:16;;;;;;;15.68;2.70;;;5.50;81.00;;;;;;4127007;28;20483;-83
2022/01/18 07:35:19;;;;;;;31.55;2.70;;;5.40;81.00;;;;;;4128465;28;20026;-82
2022/01/18 07:37:22;;;;;;;14.40;1.92;;;5.50;81.10;;;;;;4125955;28;20026;-83
2022/01/18 07:39:23;;;;;;;19.38;2.08;;;5.50;81.00;;;;;;4143076;28;20129;-82
2022/01/18 07:41:23;;;;;;;17.02;2.10;;;5.50;80.80;;;;;;4124092;28;20600;-83
2022/01/18 07:43:24;;;;;;;14.38;2.13;;;5.50;80.90;;;;;;4142566;28;20061;-83
2022/01/18 07:45:25;;;;;;;15.73;2.50;;;5.50;80.80;;;;;;4123593;28;20034;-83
2022/01/18 07:47:25;;;;;;;12.25;1.80;;;5.50;80.70;;;;;;4110822;28;20031;-83
2022/01/18 07:49:26;;;;;;;13.23;2.03;;;5.50;80.60;;;;;;4110938;28;20019;-84
2022/01/18 07:51:27;;;;;;;27.27;3.08;;;5.50;80.70;;;;;;4111548;28;20031;-84
2022/01/18 07:53:28;;;;;;;18.38;2.38;;;5.50;80.60;;;;;;4143875;28;20025;-84
2022/01/18 07:55:28;;;;;;;17.73;2.40;;;5.50;80.70;;;;;;4111070;28;20134;-83
2022/01/18 07:57:29;;;;;;;27.63;5.97;;;5.50;80.60;;;;;;4128824;28;20034;-84
2022/01/18 07:59:30;;;;;;;15.50;2.88;;;5.50;80.50;;;;;;4128317;28;20109;-83
2022/01/18 08:01:31;;;;;;;16.35;3.20;;;5.50;80.50;;;;;;4142680;28;20034;-84
2022/01/18 08:03:33;;;;;;;19.52;3.28;;;5.60;80.50;;;;;;4114885;28;20584;-84
2022/01/18 08:05:34;;;;;;;14.80;2.78;;;5.50;80.40;;;;;;4126510;28;20136;-83
2022/01/18 08:07:34;;;;;;;19.95;4.68;;;5.60;80.60;;;;;;4120171;28;20026;-83
2022/01/18 08:09:36;;;;;;;26.55;6.13;;;5.50;80.60;;;;;;4095183;28;20023;-84
2022/01/18 08:11:37;;;;;;;20.98;4.35;;;5.60;80.90;;;;;;4124148;28;20067;-83
2022/01/18 08:13:42;;;;;;;13.35;2.63;;;5.60;81.00;;;;;;4123537;28;20484;-84
2022/01/18 08:15:44;;;;;;;13.35;2.80;;;5.60;81.00;;;;;;4113038;28;20472;-84
2022/01/18 08:17:47;;;;;;;9.63;2.38;;;5.60;81.10;;;;;;4112830;28;20479;-84
2022/01/18 08:19:48;;;;;;;16.35;2.50;;;5.70;81.10;;;;;;4128181;28;20031;-83
2022/01/18 08:21:48;;;;;;;7.57;1.60;;;5.60;81.00;;;;;;4102380;28;20051;-85
2022/01/18 08:23:49;;;;;;;16.38;2.42;;;5.70;81.00;;;;;;4126412;28;20029;-83
2022/01/18 08:25:50;;;;;;;15.18;2.33;;;5.70;81.00;;;;;;4110629;28;20366;-83
2022/01/18 08:27:50;;;;;;;14.93;2.17;;;5.80;81.00;;;;;;4143275;28;20034;-82
2022/01/18 08:29:51;;;;;;;19.02;2.05;;;5.80;81.00;;;;;;4127457;28;20030;-83
2022/01/18 08:31:52;;;;;;;15.38;2.00;;;5.80;80.90;;;;;;4109223;28;20484;-84
2022/01/18 08:33:52;;;;;;;13.80;1.83;;;5.90;80.80;;;;;;4128421;28;20026;-84
2022/01/18 08:35:53;;;;;;;10.23;2.08;;;5.80;80.80;;;;;;4141594;28;20037;-84
2022/01/18 08:37:54;;;;;;;14.50;1.83;;;5.80;80.80;;;;;;4128103;28;20034;-83
2022/01/18 08:39:54;;;;;;;16.63;1.98;;;5.90;80.80;;;;;;4124214;28;20034;-84
2022/01/18 08:41:55;;;;;;;12.60;1.42;;;5.90;80.80;;;;;;4121803;28;20502;-83
2022/01/18 08:43:56;;;;;;;14.93;2.17;;;5.90;80.80;;;;;;4120643;28;20503;-83
2022/01/18 08:46:00;;;;;;;13.65;1.27;;;5.90;80.60;;;;;;4127040;28;20053;-83
2022/01/18 08:48:01;;;;;;;14.82;2.13;;;6.00;80.60;;;;;;4136718;28;20034;-83
2022/01/18 08:50:02;;;;;;;19.17;2.00;;;6.00;80.50;;;;;;4138852;28;20034;-83
2022/01/18 08:52:03;;;;;;;20.83;2.08;;;6.00;80.50;;;;;;4137047;28;20025;-84
2022/01/18 08:54:05;;;;;;;14.10;2.08;;;5.90;80.50;;;;;;4096418;28;20047;-84
2022/01/18 08:56:06;;;;;;;14.25;2.00;;;6.00;80.50;;;;;;4110705;28;20516;-84
2022/01/18 08:58:08;;;;;;;17.55;1.95;;;6.10;81.30;;;;;;4130337;28;20084;-84
2022/01/18 09:00:10;;;;;;;13.40;1.75;;;6.00;80.50;;;;;;4113804;28;20214;-84
2022/01/18 09:02:11;;;;;;;9.13;1.60;;;6.00;80.30;;;;;;4111884;28;20071;-83
2022/01/18 09:04:15;;;;;;;15.77;1.50;;;5.90;80.10;;;;;;4125414;28;20476;-84
2022/01/18 09:06:19;;;;;;;11.65;1.50;;;6.00;80.40;;;;;;4111549;28;20448;-84
2022/01/18 09:08:20;;;;;;;6.78;1.30;;;5.90;80.40;;;;;;4125266;28;20031;-84
2022/01/18 09:10:25;;;;;;;11.88;1.55;;;5.90;80.50;;;;;;4095901;28;20118;-84
2022/01/18 09:12:25;;;;;;;6.75;1.30;;;6.00;80.70;;;;;;4111349;28;20396;-84
2022/01/18 09:14:26;;;;;;;9.48;1.23;;;5.90;80.80;;;;;;4127027;28;20022;-84
2022/01/18 09:16:27;;;;;;;17.52;1.55;;;5.90;80.80;;;;;;4122883;28;20385;-84
2022/01/18 09:18:27;;;;;;;10.00;1.55;;;5.90;81.00;;;;;;4125543;28;20046;-83
2022/01/18 09:20:28;;;;;;;10.50;1.48;;;5.90;81.10;;;;;;4122318;28;20023;-84
2022/01/18 09:22:29;;;;;;;12.90;1.02;;;6.00;81.30;;;;;;4110517;28;20082;-84
2022/01/18 09:24:30;;;;;;;6.35;1.30;;;5.90;81.30;;;;;;4127217;28;20030;-84
2022/01/18 09:26:31;;;;;;;9.43;1.50;;;6.00;81.20;;;;;;4111065;28;20189;-84
2022/01/18 09:28:32;;;;;;;6.82;0.82;;;6.00;81.20;;;;;;4122717;28;20097;-83
2022/01/18 09:30:34;;;;;;;13.30;1.65;;;6.00;81.90;;;;;;4119541;28;20045;-83
2022/01/18 09:32:34;;;;;;;9.85;1.63;;;5.90;81.20;;;;;;4127290;28;20026;-83
2022/01/18 09:34:35;;;;;;;7.28;1.02;;;5.90;81.30;;;;;;4144614;28;20044;-84
2022/01/18 09:36:36;;;;;;;9.57;1.33;;;5.90;81.40;;;;;;4139795;28;20033;-84
2022/01/18 09:38:39;;;;;;;8.50;0.88;;;6.00;81.50;;;;;;4133243;28;20026;-84
2022/01/18 09:40:42;;;;;;;5.10;0.75;;;5.90;81.30;;;;;;4127167;28;20484;-84
2022/01/18 09:42:44;;;;;;;;;;;5.90;81.20;;;;;;4137825;28;20230;-84
2022/01/18 09:44:46;;;;;;;7.05;0.95;;;5.90;81.40;;;;;;4108102;28;19922;-84
2022/01/18 09:46:50;;;;;;;3.70;0.50;;;5.90;81.20;;;;;;4106862;28;20543;-84
2022/01/18 09:48:55;;;;;;;4.57;0.80;;;5.90;81.20;;;;;;4094710;28;20039;-84
2022/01/18 09:50:58;;;;;;;8.18;0.90;;;5.90;81.20;;;;;;4129308;28;20046;-84
2022/01/18 09:52:59;;;;;;;6.75;0.70;;;5.90;81.20;;;;;;4126773;28;20077;-84
2022/01/18 09:55:03;;;;;;;4.78;0.80;;;5.90;81.40;;;;;;4125011;28;20082;-85
2022/01/18 09:57:06;;;;;;;5.78;1.00;;;5.90;81.40;;;;;;4106524;28;20031;-84
2022/01/18 09:59:12;;;;;;;5.10;0.65;;;5.90;81.40;;;;;;4127617;28;20023;-84
2022/01/18 10:01:13;;;;;;;7.10;0.60;;;5.90;81.40;;;;;;4111690;28;20930;-84
2022/01/18 10:03:35;;;;;;;5.90;0.52;;;5.90;81.40;;;;;;4109530;28;20031;-85
2022/01/18 10:05:38;;;;;;;10.80;0.98;;;5.90;81.20;;;;;;4142875;28;20053;-84
2022/01/18 10:07:44;;;;;;;10.02;1.38;;;5.90;81.30;;;;;;4125781;28;20148;-84
2022/01/18 10:09:50;;;;;;;5.32;1.67;;;5.90;81.00;;;;;;4126389;28;20018;-85
2022/01/18 10:12:03;;;;;;;6.22;0.90;;;5.90;80.90;;;;;;4125917;28;20057;-85
2022/01/18 10:14:05;;;;;;;5.03;1.13;;;5.90;81.00;;;;;;4137259;28;20026;-84
2022/01/18 10:16:12;;;;;;;5.97;1.20;;;5.90;81.10;;;;;;4093876;28;20159;-84
2022/01/18 10:18:13;;;;;;;3.85;0.60;;;5.90;81.10;;;;;;4141876;28;20154;-84
2022/01/18 10:20:19;;;;;;;6.38;0.50;;;6.00;81.30;;;;;;4111505;28;20031;-84
2022/01/18 10:22:25;;;;;;;7.00;0.85;;;6.00;81.40;;;;;;4155079;28;20439;-83
2022/01/18 10:24:28;;;;;;;3.08;0.82;;;6.00;81.40;;;;;;4144229;28;20117;-83
2022/01/18 10:26:29;;;;;;;5.45;0.80;;;6.00;81.40;;;;;;4110480;28;20046;-83
2022/01/18 10:28:34;;;;;;;4.25;1.10;;;6.00;81.30;;;;;;4142700;28;20038;-83
2022/01/18 10:30:45;;;;;;;3.50;0.70;;;6.00;81.30;;;;;;4135294;28;20109;-83
2022/01/18 10:33:01;;;;;;;3.00;0.43;;;6.00;81.30;;;;;;4129632;28;20022;-84
2022/01/18 10:35:05;;;;;;;2.72;0.68;;;6.00;81.10;;;;;;4154460;28;20069;-83
2022/01/18 10:37:15;;;;;;;1.52;0.28;;;6.00;81.00;;;;;;4138676;28;20372;-83
2022/01/18 10:39:23;;;;;;;1.35;0.35;;;6.00;80.60;;;;;;4142207;28;20022;-83
2022/01/18 10:41:27;;;;;;;0.45;0.10;;;6.00;80.40;;;;;;4125777;28;20113;-83
2022/01/18 10:43:32;;;;;;;0.38;0.17;;;6.00;80.20;;;;;;4127809;28;20073;-83
2022/01/18 10:45:37;;;;;;;1.17;0.20;;;6.00;80.00;;;;;;4143939;28;20037;-83
2022/01/18 10:47:38;;;;;;;0.73;0.20;;;6.00;79.90;;;;;;4112572;28;20400;-83
2022/01/18 10:49:43;;;;;;;3.42;1.15;;;6.00;80.00;;;;;;4113874;28;20061;-83
2022/01/18 10:51:47;;;;;;;2.15;0.25;;;6.00;80.10;;;;;;4128717;28;20065;-83
2022/01/18 10:54:04;;;;;;;0.93;0.52;;;6.00;80.30;;;;;;4146960;28;20545;-82
2022/01/18 10:56:13;;;;;;;3.92;0.43;;;6.10;80.30;;;;;;4126917;28;20512;-82
2022/01/18 10:58:15;;;;;;;3.40;0.47;;;6.00;80.20;;;;;;4114385;28;20061;-83
2022/01/18 11:00:22;;;;;;;3.07;0.80;;;6.00;80.20;;;;;;4145315;28;20061;-83
2022/01/18 11:02:22;;;;;;;3.40;0.75;;;6.00;80.50;;;;;;4130308;28;20566;-84
2022/01/18 11:04:23;;;;;;;2.80;0.63;;;6.10;80.60;;;;;;4114726;28;20023;-83
2022/01/18 11:06:25;;;;;;;3.15;1.10;;;6.10;80.60;;;;;;4129805;28;20748;-83
2022/01/18 11:08:26;;;;;;;2.00;0.57;;;6.20;80.50;;;;;;4101268;28;20023;-83
2022/01/18 11:10:30;;;;;;;2.58;0.80;;;6.20;80.20;;;;;;4130162;28;20033;-83
2022/01/18 11:12:49;;;;;;;1.67;0.82;;;6.20;79.50;;;;;;4125450;28;20286;-83
2022/01/18 11:15:00;;;;;;;2.45;1.30;;;6.20;79.00;;;;;;4145508;28;20033;-83
2022/01/18 11:17:02;;;;;;;1.52;0.80;;;6.20;78.60;;;;;;4132841;28;20088;-83
2022/01/18 11:19:06;;;;;;;1.08;0.57;;;6.10;78.50;;;;;;4129820;28;20480;-83
2022/01/18 11:21:07;;;;;;;5.20;0.90;;;6.20;78.60;;;;;;4115123;28;20027;-82
2022/01/18 11:23:08;;;;;;;1.98;1.00;;;6.20;78.30;;;;;;4148195;28;20440;-82
2022/01/18 11:25:09;;;;;;;3.10;1.75;;;6.20;78.30;;;;;;4128307;28;20116;-83
2022/01/18 11:27:13;;;;;;;4.30;2.33;;;6.20;78.30;;;;;;4113310;28;20042;-83
2022/01/18 11:29:17;;;;;;;4.40;2.70;;;6.10;78.30;;;;;;4114064;28;20564;-82
2022/01/18 11:31:17;;;;;;;3.65;2.42;;;6.20;78.40;;;;;;4146563;28;20028;-82
2022/01/18 11:33:19;;;;;;;5.13;1.55;;;6.10;78.40;;;;;;4145223;28;20061;-83
2022/01/18 11:35:44;;;;;;;3.47;1.20;;;6.10;78.30;;;;;;4111441;28;20102;-83
2022/01/18 11:37:53;;;;;;;2.03;0.90;;;6.10;78.50;;;;;;4128783;28;20030;-83
2022/01/18 11:40:03;;;;;;;0.85;0.63;;;6.10;78.50;;;;;;4145875;28;20058;-83
2022/01/18 11:42:07;;;;;;;1.17;0.80;;;6.10;78.50;;;;;;4112377;28;20082;-83
2022/01/18 11:44:15;;;;;;;0.60;0.50;;;6.10;78.20;;;;;;4132100;28;20022;-83